Time;durP1;ratioP1;P1;durP2;ratioP2;P2;SDS_P1;SDS_P2;PMS_P1;PMS_P2;Temp;Humidity;BMP_temperature;BMP_pressure;BME280_temperature;BME280_humidity;BME280_pressure;Samples;Min_cycle;Max_cycle;Signal;HPM_P1;HPM_P2
2023/03/21 00:00:44;;;;;;;105.50;22.40;;;;;;;;;;5034479;28;20105;-69
2023/03/21 00:03:10;;;;;;;64.28;18.00;;;;;;;;;;5034119;28;20021;-69
2023/03/21 00:05:40;;;;;;;24.98;11.20;;;;;;;;;;5034542;28;20032;-69
2023/03/21 00:08:05;;;;;;;68.93;17.00;;;;;;;;;;5034514;28;20478;-69
2023/03/21 00:10:31;;;;;;;46.83;14.93;;;;;;;;;;5028761;28;20095;-69
2023/03/21 00:12:57;;;;;;;82.80;19.85;;;;;;;;;;5029492;28;20443;-69
2023/03/21 00:15:26;;;;;;;157.43;30.92;;;;;;;;;;5032830;28;20043;-69
2023/03/21 00:18:02;;;;;;;241.73;45.55;;;;;;;;;;5013377;28;20036;-69
2023/03/21 00:20:33;;;;;;;202.20;40.05;;;;;;;;;;5014283;28;20030;-69
2023/03/21 00:23:00;;;;;;;174.93;35.35;;;;;;;;;;5014526;28;20087;-69
2023/03/21 00:25:26;;;;;;;193.40;35.38;;;;;;;;;;5014222;28;20493;-69
2023/03/21 00:27:51;;;;;;;133.70;28.70;;;;;;;;;;5014435;28;20026;-69
2023/03/21 00:30:17;;;;;;;51.00;18.30;;;;;;;;;;5014396;28;20058;-69
2023/03/21 00:32:42;;;;;;;37.22;13.77;;;;;;;;;;5014291;28;20095;-69
2023/03/21 00:35:08;;;;;;;44.03;16.15;;;;;;;;;;5014266;28;20030;-69
2023/03/21 00:37:33;;;;;;;31.48;13.10;;;;;;;;;;5014218;28;20026;-70
2023/03/21 00:39:59;;;;;;;29.27;11.55;;;;;;;;;;5013149;28;20025;-69
2023/03/21 00:42:25;;;;;;;25.48;10.05;;;;;;;;;;5006761;28;20030;-69
2023/03/21 00:44:50;;;;;;;36.97;14.02;;;;;;;;;;5003614;28;20113;-68
2023/03/21 00:47:16;;;;;;;56.15;19.83;;;;;;;;;;5005359;28;20106;-69
2023/03/21 00:49:41;;;;;;;27.15;13.13;;;;;;;;;;5002701;28;20121;-68
2023/03/21 00:52:09;;;;;;;65.90;19.60;;;;;;;;;;5004687;28;20080;-69
2023/03/21 00:54:36;;;;;;;44.05;16.73;;;;;;;;;;5005006;28;20048;-69
2023/03/21 00:57:02;;;;;;;83.00;23.90;;;;;;;;;;5002628;28;20110;-69
2023/03/21 00:59:28;;;;;;;89.53;24.23;;;;;;;;;;5004042;28;20455;-69
2023/03/21 01:01:55;;;;;;;146.60;46.35;;;;;;;;;;5003819;28;20034;-69
2023/03/21 01:04:25;;;;;;;132.07;38.25;;;;;;;;;;5002605;28;20026;-69
2023/03/21 01:06:52;;;;;;;206.88;46.72;;;;;;;;;;5003616;28;20091;-68
2023/03/21 01:09:21;;;;;;;81.65;23.80;;;;;;;;;;5004105;28;20027;-69
2023/03/21 01:11:47;;;;;;;66.80;22.63;;;;;;;;;;4996423;28;20480;-69
2023/03/21 01:14:14;;;;;;;33.53;14.90;;;;;;;;;;4993583;28;20041;-69
2023/03/21 01:16:40;;;;;;;37.28;15.43;;;;;;;;;;4993794;28;20018;-69
2023/03/21 01:19:07;;;;;;;32.95;14.63;;;;;;;;;;4993988;28;20529;-69
2023/03/21 01:21:33;;;;;;;26.63;13.60;;;;;;;;;;4993754;28;20037;-69
2023/03/21 01:24:00;;;;;;;24.95;13.15;;;;;;;;;;4993595;28;20030;-69
2023/03/21 01:26:26;;;;;;;34.25;17.17;;;;;;;;;;4993898;28;20023;-69
2023/03/21 01:28:51;;;;;;;25.27;11.82;;;;;;;;;;4993702;28;20028;-69
2023/03/21 01:31:17;;;;;;;24.40;12.25;;;;;;;;;;4976335;28;20109;-69
2023/03/21 01:33:43;;;;;;;18.42;10.43;;;;;;;;;;4993657;28;20034;-69
2023/03/21 01:36:14;;;;;;;17.17;9.73;;;;;;;;;;4993619;28;20027;-69
2023/03/21 01:38:41;;;;;;;15.43;10.05;;;;;;;;;;4993445;28;20388;-69
2023/03/21 01:41:06;;;;;;;19.63;10.70;;;;;;;;;;4993404;28;20038;-69
2023/03/21 01:43:34;;;;;;;17.95;10.85;;;;;;;;;;4993561;28;20480;-69
2023/03/21 01:46:09;;;;;;;21.85;11.90;;;;;;;;;;4993523;28;20073;-69
2023/03/21 01:48:41;;;;;;;20.52;11.57;;;;;;;;;;4993419;28;20064;-69
2023/03/21 01:51:07;;;;;;;23.20;14.40;;;;;;;;;;4993085;28;20129;-69
2023/03/21 01:53:36;;;;;;;32.50;17.92;;;;;;;;;;5005739;28;20076;-69
2023/03/21 01:56:09;;;;;;;60.72;22.52;;;;;;;;;;5012915;28;20033;-69
2023/03/21 01:58:37;;;;;;;32.95;16.45;;;;;;;;;;5012857;28;20487;-69
2023/03/21 02:01:03;;;;;;;27.73;15.02;;;;;;;;;;5012809;28;20038;-69
2023/03/21 02:03:36;;;;;;;21.27;11.90;;;;;;;;;;5012941;28;20380;-69
2023/03/21 02:06:10;;;;;;;16.23;9.30;;;;;;;;;;5012584;28;20030;-69
2023/03/21 02:08:35;;;;;;;14.27;9.63;;;;;;;;;;4995365;28;20037;-69
2023/03/21 02:11:01;;;;;;;18.33;9.55;;;;;;;;;;4995183;28;20029;-69
2023/03/21 02:13:27;;;;;;;12.60;8.75;;;;;;;;;;5012940;28;20117;-69
2023/03/21 02:16:07;;;;;;;13.68;8.95;;;;;;;;;;5012763;28;20165;-69
2023/03/21 02:19:09;;;;;;;16.60;9.25;;;;;;;;;;5012821;28;20018;-69
2023/03/21 02:21:59;;;;;;;12.90;8.90;;;;;;;;;;5012614;28;20034;-69
2023/03/21 02:24:52;;;;;;;14.88;9.30;;;;;;;;;;5012829;28;20034;-69
2023/03/21 02:27:21;;;;;;;14.57;8.75;;;;;;;;;;5015794;28;20022;-69
2023/03/21 02:29:49;;;;;;;15.20;9.38;;;;;;;;;;5016704;28;20117;-69
2023/03/21 02:32:50;;;;;;;17.35;9.35;;;;;;;;;;5016691;28;20101;-69
2023/03/21 02:35:48;;;;;;;15.35;9.63;;;;;;;;;;4975240;28;20528;-69
2023/03/21 02:38:39;;;;;;;15.15;9.68;;;;;;;;;;4975489;28;20054;-69
2023/03/21 02:41:41;;;;;;;15.80;9.27;;;;;;;;;;4975056;28;20052;-69
2023/03/21 02:44:10;;;;;;;17.55;10.52;;;;;;;;;;4917717;29;20554;-69
2023/03/21 02:47:17;;;;;;;18.60;10.73;;;;;;;;;;4917643;29;20095;-68
2023/03/21 02:49:48;;;;;;;21.65;10.40;;;;;;;;;;4842676;29;20452;-69
2023/03/21 02:52:19;;;;;;;19.10;11.75;;;;;;;;;;4842626;29;20054;-69
2023/03/21 02:54:47;;;;;;;17.77;10.43;;;;;;;;;;4842898;29;20077;-69
2023/03/21 02:57:13;;;;;;;24.50;11.60;;;;;;;;;;4842868;29;20037;-69
2023/03/21 02:59:40;;;;;;;15.77;10.20;;;;;;;;;;4842945;29;20145;-69
2023/03/21 03:02:06;;;;;;;25.75;13.63;;;;;;;;;;4842580;29;20454;-69
2023/03/21 03:04:31;;;;;;;21.00;12.07;;;;;;;;;;4842498;29;20030;-69
2023/03/21 03:06:57;;;;;;;21.83;11.82;;;;;;;;;;4842868;29;20062;-69
2023/03/21 03:09:46;;;;;;;27.30;14.48;;;;;;;;;;4842915;29;20042;-68
2023/03/21 03:12:30;;;;;;;25.75;13.82;;;;;;;;;;4842763;29;20053;-69
2023/03/21 03:15:28;;;;;;;33.58;17.92;;;;;;;;;;4842677;29;20044;-69
2023/03/21 03:18:05;;;;;;;170.27;82.55;;;;;;;;;;4842513;29;20565;-69
2023/03/21 03:20:45;;;;;;;119.63;54.55;;;;;;;;;;4851752;29;20041;-69
2023/03/21 03:23:25;;;;;;;60.80;27.20;;;;;;;;;;4879555;29;20101;-69
2023/03/21 03:25:57;;;;;;;26.40;14.93;;;;;;;;;;4964174;28;20035;-69
2023/03/21 03:28:29;;;;;;;24.92;13.45;;;;;;;;;;4996164;28;20026;-69
2023/03/21 03:30:56;;;;;;;23.73;12.27;;;;;;;;;;4995839;28;20066;-69
2023/03/21 03:33:24;;;;;;;24.60;13.38;;;;;;;;;;4995624;28;20023;-69
2023/03/21 03:35:53;;;;;;;22.13;12.80;;;;;;;;;;4995795;28;20050;-69
2023/03/21 03:38:21;;;;;;;21.15;11.82;;;;;;;;;;4995105;28;20026;-69
2023/03/21 03:41:02;;;;;;;21.10;12.13;;;;;;;;;;4995437;28;20018;-69
2023/03/21 03:43:42;;;;;;;27.67;12.82;;;;;;;;;;4995588;28;20044;-69
2023/03/21 03:46:33;;;;;;;52.43;17.63;;;;;;;;;;4995668;28;20076;-69
2023/03/21 03:49:09;;;;;;;39.20;17.05;;;;;;;;;;4994808;28;20391;-69
2023/03/21 03:51:42;;;;;;;38.20;15.27;;;;;;;;;;4995357;28;20436;-69
2023/03/21 03:54:16;;;;;;;29.70;14.85;;;;;;;;;;5029542;28;20040;-69
2023/03/21 03:56:42;;;;;;;27.55;13.20;;;;;;;;;;5034765;28;20033;-69
2023/03/21 03:59:08;;;;;;;26.67;13.90;;;;;;;;;;5034583;28;20030;-68
2023/03/21 04:01:34;;;;;;;21.58;11.10;;;;;;;;;;5034413;28;20040;-69
2023/03/21 04:04:00;;;;;;;15.52;10.27;;;;;;;;;;5034605;28;20025;-69
2023/03/21 04:06:27;;;;;;;18.13;10.68;;;;;;;;;;5034513;28;20025;-69
2023/03/21 04:08:55;;;;;;;20.13;11.40;;;;;;;;;;5034711;28;20021;-69
2023/03/21 04:11:20;;;;;;;15.93;11.15;;;;;;;;;;5031069;28;20017;-69
2023/03/21 04:13:46;;;;;;;23.30;12.32;;;;;;;;;;5014711;28;20037;-69
2023/03/21 04:16:13;;;;;;;22.65;11.90;;;;;;;;;;5014610;28;20029;-69
2023/03/21 04:18:39;;;;;;;19.35;11.30;;;;;;;;;;5014604;28;20018;-69
2023/03/21 04:21:12;;;;;;;17.27;10.63;;;;;;;;;;5014454;28;20369;-69
2023/03/21 04:23:38;;;;;;;22.15;10.48;;;;;;;;;;5014527;28;20022;-69
2023/03/21 04:26:04;;;;;;;21.75;11.25;;;;;;;;;;5014450;28;20066;-69
2023/03/21 04:28:32;;;;;;;17.50;10.93;;;;;;;;;;5014507;28;20025;-69
2023/03/21 04:30:58;;;;;;;19.33;10.32;;;;;;;;;;4996596;28;20030;-69
2023/03/21 04:33:26;;;;;;;22.90;10.82;;;;;;;;;;5014437;28;20482;-69
2023/03/21 04:35:55;;;;;;;20.35;11.10;;;;;;;;;;5014212;28;20105;-69
2023/03/21 04:38:22;;;;;;;16.33;10.45;;;;;;;;;;5014325;28;20423;-69
2023/03/21 04:40:47;;;;;;;14.90;10.23;;;;;;;;;;5013956;28;20448;-69
2023/03/21 04:43:13;;;;;;;18.00;11.18;;;;;;;;;;5014276;28;20105;-69
2023/03/21 04:45:38;;;;;;;18.30;11.02;;;;;;;;;;5013890;28;20057;-69
2023/03/21 04:48:04;;;;;;;16.55;10.43;;;;;;;;;;5014090;28;20053;-69
2023/03/21 04:50:31;;;;;;;15.45;10.60;;;;;;;;;;5013108;28;20033;-69
2023/03/21 04:52:56;;;;;;;18.10;11.13;;;;;;;;;;5021120;28;20056;-69
2023/03/21 04:55:23;;;;;;;21.38;10.98;;;;;;;;;;5033666;28;20029;-68
2023/03/21 04:57:49;;;;;;;20.38;11.77;;;;;;;;;;5015835;28;20098;-68
2023/03/21 05:00:15;;;;;;;23.25;12.18;;;;;;;;;;5033339;28;20025;-68
2023/03/21 05:02:41;;;;;;;20.35;11.82;;;;;;;;;;5033441;28;20033;-67
2023/03/21 05:05:10;;;;;;;19.67;12.98;;;;;;;;;;5033486;28;20047;-68
2023/03/21 05:07:37;;;;;;;20.95;12.80;;;;;;;;;;5033420;28;20172;-68
2023/03/21 05:10:04;;;;;;;18.42;12.43;;;;;;;;;;5033451;28;20094;-68
2023/03/21 05:12:29;;;;;;;19.95;12.23;;;;;;;;;;5033198;28;20025;-68
2023/03/21 05:14:55;;;;;;;19.83;12.90;;;;;;;;;;5033089;28;20383;-67
2023/03/21 05:17:23;;;;;;;19.65;12.55;;;;;;;;;;5033361;28;20082;-68
2023/03/21 05:19:51;;;;;;;21.08;13.32;;;;;;;;;;5033001;28;20037;-68
2023/03/21 05:22:18;;;;;;;22.58;12.77;;;;;;;;;;5033059;28;20433;-68
2023/03/21 05:24:48;;;;;;;25.35;13.00;;;;;;;;;;5033176;28;20027;-68
2023/03/21 05:27:33;;;;;;;21.67;12.70;;;;;;;;;;5033168;28;20021;-68
2023/03/21 05:30:15;;;;;;;20.73;12.35;;;;;;;;;;5032818;28;20168;-68
2023/03/21 05:32:40;;;;;;;17.88;11.57;;;;;;;;;;5033017;28;20041;-68
2023/03/21 05:35:06;;;;;;;18.83;12.13;;;;;;;;;;5033059;28;20063;-68
2023/03/21 05:37:32;;;;;;;20.02;11.70;;;;;;;;;;5032885;28;20057;-68
2023/03/21 05:39:57;;;;;;;19.30;12.00;;;;;;;;;;5032790;28;20025;-68
2023/03/21 05:42:24;;;;;;;19.20;11.43;;;;;;;;;;5032683;28;20052;-68
2023/03/21 05:44:49;;;;;;;20.98;11.70;;;;;;;;;;5032516;28;20028;-69
2023/03/21 05:47:16;;;;;;;18.02;11.32;;;;;;;;;;5032765;28;20037;-68
2023/03/21 05:49:42;;;;;;;24.98;12.15;;;;;;;;;;5032850;28;20038;-68
2023/03/21 05:52:08;;;;;;;22.15;11.77;;;;;;;;;;5032231;28;20052;-68
2023/03/21 05:54:33;;;;;;;19.63;11.05;;;;;;;;;;5032716;28;20025;-68
2023/03/21 05:56:59;;;;;;;20.90;10.88;;;;;;;;;;5032736;28;20104;-68
2023/03/21 05:59:25;;;;;;;17.52;10.45;;;;;;;;;;5032298;28;20028;-68
2023/03/21 06:01:50;;;;;;;20.10;11.60;;;;;;;;;;5014405;28;20385;-68
2023/03/21 06:04:16;;;;;;;19.83;11.57;;;;;;;;;;5032541;28;20030;-68
2023/03/21 06:06:41;;;;;;;20.08;11.25;;;;;;;;;;5014834;28;20039;-68
2023/03/21 06:09:06;;;;;;;22.60;11.43;;;;;;;;;;5032183;28;20059;-68
2023/03/21 06:11:35;;;;;;;18.85;12.13;;;;;;;;;;5032520;28;20096;-68
2023/03/21 06:14:01;;;;;;;21.42;11.80;;;;;;;;;;5032266;28;20026;-68
2023/03/21 06:16:27;;;;;;;20.92;11.85;;;;;;;;;;5032481;28;20053;-68
2023/03/21 06:18:53;;;;;;;21.83;13.10;;;;;;;;;;5032286;28;20029;-68
2023/03/21 06:21:19;;;;;;;17.92;10.48;;;;;;;;;;5032341;28;20037;-68
2023/03/21 06:23:45;;;;;;;19.77;10.75;;;;;;;;;;5032342;28;20039;-69
2023/03/21 06:26:11;;;;;;;17.92;10.40;;;;;;;;;;5032244;28;20030;-68
2023/03/21 06:28:36;;;;;;;18.45;10.45;;;;;;;;;;5031863;28;20026;-68
2023/03/21 06:31:02;;;;;;;16.17;9.43;;;;;;;;;;5032123;28;20498;-68
2023/03/21 06:33:27;;;;;;;17.10;9.35;;;;;;;;;;5014570;28;20475;-68
2023/03/21 06:35:55;;;;;;;13.25;8.63;;;;;;;;;;5032204;28;20029;-68
2023/03/21 06:38:21;;;;;;;15.05;9.60;;;;;;;;;;5032243;28;20038;-68
2023/03/21 06:40:47;;;;;;;15.55;9.82;;;;;;;;;;5031995;28;20026;-68
2023/03/21 06:43:13;;;;;;;15.77;10.00;;;;;;;;;;5031760;28;20021;-68
2023/03/21 06:45:39;;;;;;;16.33;9.45;;;;;;;;;;5032068;28;20033;-69
2023/03/21 06:48:04;;;;;;;16.70;9.20;;;;;;;;;;5031960;28;20047;-69
2023/03/21 06:50:30;;;;;;;14.57;8.75;;;;;;;;;;5032014;28;20033;-68
2023/03/21 06:52:58;;;;;;;15.90;9.25;;;;;;;;;;5031589;28;20038;-70
2023/03/21 06:55:25;;;;;;;14.05;9.20;;;;;;;;;;5031898;28;20022;-68
2023/03/21 06:57:56;;;;;;;14.10;8.95;;;;;;;;;;5031664;28;20080;-68
2023/03/21 07:00:22;;;;;;;13.68;8.70;;;;;;;;;;5031783;28;20360;-69
2023/03/21 07:02:48;;;;;;;20.35;9.88;;;;;;;;;;5031728;28;20456;-68
2023/03/21 07:05:14;;;;;;;16.08;9.43;;;;;;;;;;5031815;28;20148;-68
2023/03/21 07:07:39;;;;;;;15.40;9.75;;;;;;;;;;5031766;28;20064;-68
2023/03/21 07:10:06;;;;;;;13.63;9.70;;;;;;;;;;5031406;28;20469;-68
2023/03/21 07:12:34;;;;;;;14.10;9.40;;;;;;;;;;5031924;28;20029;-69
2023/03/21 07:15:01;;;;;;;17.52;9.98;;;;;;;;;;5035358;28;20029;-69
2023/03/21 07:17:26;;;;;;;13.80;8.38;;;;;;;;;;5035276;28;20092;-69
2023/03/21 07:19:52;;;;;;;15.15;8.80;;;;;;;;;;5035180;28;20139;-69
2023/03/21 07:22:18;;;;;;;14.52;7.25;;;;;;;;;;5035233;28;20045;-69
2023/03/21 07:24:46;;;;;;;14.00;7.97;;;;;;;;;;5034988;28;20501;-68
2023/03/21 07:27:12;;;;;;;14.80;8.35;;;;;;;;;;5017070;28;20033;-69
2023/03/21 07:29:38;;;;;;;11.57;7.32;;;;;;;;;;5035038;28;20025;-68
2023/03/21 07:32:03;;;;;;;11.20;7.20;;;;;;;;;;5035050;28;20426;-69
2023/03/21 07:34:32;;;;;;;15.88;7.88;;;;;;;;;;5034945;28;20040;-69
2023/03/21 07:36:57;;;;;;;13.13;7.93;;;;;;;;;;5034861;28;20025;-69
2023/03/21 07:39:23;;;;;;;13.30;7.97;;;;;;;;;;5034728;28;20029;-69
2023/03/21 07:41:48;;;;;;;12.70;7.82;;;;;;;;;;5034625;28;20351;-68
2023/03/21 07:44:14;;;;;;;14.35;8.43;;;;;;;;;;5034829;28;20029;-69
2023/03/21 07:46:40;;;;;;;15.10;8.20;;;;;;;;;;5034878;28;20041;-69
2023/03/21 07:49:07;;;;;;;19.35;7.78;;;;;;;;;;5034861;28;20490;-68
2023/03/21 07:51:34;;;;;;;12.77;7.55;;;;;;;;;;5034524;28;20044;-69
2023/03/21 07:54:00;;;;;;;10.80;7.88;;;;;;;;;;5034228;28;20037;-68
2023/03/21 07:56:26;;;;;;;17.73;7.40;;;;;;;;;;5034617;28;20034;-69
2023/03/21 07:58:52;;;;;;;14.15;7.95;;;;;;;;;;5034553;28;20026;-69
2023/03/21 08:01:17;;;;;;;9.95;7.13;;;;;;;;;;5028320;28;20352;-69
2023/03/21 08:03:43;;;;;;;10.45;7.45;;;;;;;;;;5013345;28;20503;-69
2023/03/21 08:06:09;;;;;;;16.17;7.95;;;;;;;;;;5011613;28;20025;-69
2023/03/21 08:08:34;;;;;;;13.80;7.28;;;;;;;;;;4990401;28;20486;-69
2023/03/21 08:11:00;;;;;;;13.70;7.18;;;;;;;;;;5008230;28;20118;-69
2023/03/21 08:13:25;;;;;;;10.73;7.10;;;;;;;;;;5010334;28;20120;-69
2023/03/21 08:15:50;;;;;;;14.25;7.60;;;;;;;;;;5010967;28;20483;-69
2023/03/21 08:18:16;;;;;;;11.75;7.68;;;;;;;;;;5012162;28;20046;-68
2023/03/21 08:20:41;;;;;;;11.25;7.38;;;;;;;;;;5009951;28;20136;-69
2023/03/21 08:23:07;;;;;;;11.57;8.00;;;;;;;;;;5010419;28;20105;-68
2023/03/21 08:25:33;;;;;;;15.10;8.48;;;;;;;;;;4997182;28;20088;-70
2023/03/21 08:27:58;;;;;;;13.48;8.13;;;;;;;;;;5024484;28;20029;-68
2023/03/21 08:30:26;;;;;;;19.20;8.68;;;;;;;;;;5015339;28;20117;-69
2023/03/21 08:32:56;;;;;;;21.83;8.73;;;;;;;;;;5028281;28;20410;-68
2023/03/21 08:35:21;;;;;;;13.80;8.70;;;;;;;;;;4999340;28;20371;-69
2023/03/21 08:37:47;;;;;;;18.90;10.77;;;;;;;;;;5023460;28;20278;-69
2023/03/21 08:40:16;;;;;;;16.02;9.63;;;;;;;;;;5023722;28;20092;-69
2023/03/21 08:42:42;;;;;;;14.95;10.27;;;;;;;;;;5008939;28;20033;-69
2023/03/21 08:45:10;;;;;;;15.80;10.45;;;;;;;;;;5015224;28;20026;-68
2023/03/21 08:47:35;;;;;;;16.45;10.73;;;;;;;;;;5013451;28;20030;-68
2023/03/21 08:50:02;;;;;;;17.00;10.15;;;;;;;;;;5014447;28;20033;-68
2023/03/21 08:52:28;;;;;;;23.80;11.02;;;;;;;;;;5032018;28;20490;-68
2023/03/21 08:54:54;;;;;;;16.45;9.77;;;;;;;;;;5032260;28;20032;-68
2023/03/21 08:57:20;;;;;;;16.48;9.40;;;;;;;;;;5032037;28;20026;-69
2023/03/21 08:59:46;;;;;;;15.48;9.45;;;;;;;;;;5032668;28;20029;-69
2023/03/21 09:02:15;;;;;;;21.85;10.20;;;;;;;;;;5014216;28;20041;-68
2023/03/21 09:04:42;;;;;;;16.88;10.30;;;;;;;;;;5033336;28;20032;-68
2023/03/21 09:07:10;;;;;;;19.15;9.80;;;;;;;;;;5031699;28;20478;-68
2023/03/21 09:09:36;;;;;;;16.00;9.60;;;;;;;;;;5030901;28;20030;-69
2023/03/21 09:12:02;;;;;;;11.93;8.50;;;;;;;;;;5013208;28;20421;-68
2023/03/21 09:14:27;;;;;;;14.43;9.38;;;;;;;;;;5031423;28;20116;-69
2023/03/21 09:16:53;;;;;;;13.82;9.43;;;;;;;;;;5031281;28;20038;-69
2023/03/21 09:19:18;;;;;;;12.85;8.80;;;;;;;;;;5031264;28;20087;-69
2023/03/21 09:21:44;;;;;;;13.25;8.55;;;;;;;;;;5031300;28;20121;-69
2023/03/21 09:24:11;;;;;;;14.98;9.75;;;;;;;;;;5032119;28;20108;-68
2023/03/21 09:26:37;;;;;;;11.30;8.10;;;;;;;;;;5032778;28;20044;-69
2023/03/21 09:29:04;;;;;;;14.23;9.07;;;;;;;;;;5032945;28;20025;-69
2023/03/21 09:31:31;;;;;;;16.92;8.50;;;;;;;;;;5032873;28;20025;-68
2023/03/21 09:33:56;;;;;;;13.38;8.52;;;;;;;;;;5032699;28;20030;-69
2023/03/21 09:36:25;;;;;;;20.13;9.38;;;;;;;;;;5031377;28;20021;-68
2023/03/21 09:38:51;;;;;;;14.82;8.70;;;;;;;;;;5032700;28;20052;-68
2023/03/21 09:41:28;;;;;;;20.17;9.55;;;;;;;;;;5032603;28;20564;-68
2023/03/21 09:44:32;;;;;;;17.10;10.10;;;;;;;;;;5032615;28;20029;-69
2023/03/21 09:47:01;;;;;;;19.67;10.00;;;;;;;;;;5032271;28;20108;-69
2023/03/21 09:49:34;;;;;;;23.45;10.80;;;;;;;;;;5014962;28;20487;-68
2023/03/21 09:52:04;;;;;;;15.55;9.25;;;;;;;;;;5032303;28;20403;-68
2023/03/21 09:54:35;;;;;;;;;;;;;;;;;;4993621;28;20038;-69
2023/03/21 09:57:18;;;;;;;14.52;8.95;;;;;;;;;;4993221;28;20017;-68
2023/03/21 09:59:45;;;;;;;17.17;8.85;;;;;;;;;;4993061;28;20487;-68
2023/03/21 10:02:37;;;;;;;16.23;9.10;;;;;;;;;;4992999;28;20038;-69
2023/03/21 10:05:16;;;;;;;16.05;9.43;;;;;;;;;;4992302;28;20361;-68
2023/03/21 10:07:50;;;;;;;16.27;9.05;;;;;;;;;;4993091;28;20067;-68
2023/03/21 10:10:20;;;;;;;24.50;10.07;;;;;;;;;;4993006;28;20034;-68
2023/03/21 10:12:47;;;;;;;;;;;;;;;;;;4993369;28;20033;-68
2023/03/21 10:15:18;;;;;;;19.73;10.43;;;;;;;;;;4992978;28;19914;-68
2023/03/21 10:17:59;;;;;;;18.15;11.27;;;;;;;;;;4992801;28;20069;-68
2023/03/21 10:20:33;;;;;;;18.23;10.15;;;;;;;;;;4992850;28;20380;-68
2023/03/21 10:23:03;;;;;;;19.33;11.20;;;;;;;;;;4993014;28;20030;-68
2023/03/21 10:25:36;;;;;;;16.05;10.73;;;;;;;;;;4992982;28;20030;-68
2023/03/21 10:28:04;;;;;;;24.67;12.88;;;;;;;;;;4992716;28;20396;-68
2023/03/21 10:30:44;;;;;;;16.67;11.25;;;;;;;;;;4992810;28;20030;-68
2023/03/21 10:33:15;;;;;;;14.45;10.18;;;;;;;;;;4992865;28;20038;-68
2023/03/21 10:35:45;;;;;;;17.00;10.88;;;;;;;;;;4993223;28;20022;-68
2023/03/21 10:38:20;;;;;;;15.33;9.43;;;;;;;;;;4993794;28;20092;-69
2023/03/21 10:40:45;;;;;;;18.35;13.30;;;;;;;;;;4993360;28;20251;-69
2023/03/21 10:43:24;;;;;;;12.48;9.38;;;;;;;;;;4992738;28;20490;-69
2023/03/21 10:45:50;;;;;;;19.52;10.00;;;;;;;;;;4992779;28;20034;-69
2023/03/21 10:48:16;;;;;;;23.70;11.05;;;;;;;;;;4995383;28;20030;-68
2023/03/21 10:50:46;;;;;;;18.52;11.05;;;;;;;;;;4996059;28;20041;-69
2023/03/21 10:53:17;;;;;;;16.60;10.50;;;;;;;;;;5015982;28;20018;-68
2023/03/21 10:55:50;;;;;;;16.65;10.73;;;;;;;;;;5034888;28;20053;-68
2023/03/21 10:58:24;;;;;;;15.20;9.95;;;;;;;;;;5035481;28;20029;-68
2023/03/21 11:00:56;;;;;;;16.40;10.43;;;;;;;;;;5035278;28;20471;-68
2023/03/21 11:03:47;;;;;;;14.05;9.80;;;;;;;;;;5035140;28;20033;-68
2023/03/21 11:06:21;;;;;;;16.52;10.43;;;;;;;;;;5035185;28;20022;-68
2023/03/21 11:08:52;;;;;;;14.05;9.48;;;;;;;;;;5035271;28;20112;-68
2023/03/21 11:11:24;;;;;;;14.65;10.20;;;;;;;;;;5022029;28;20033;-69
2023/03/21 11:13:57;;;;;;;12.70;9.10;;;;;;;;;;5008596;28;20041;-69
2023/03/21 11:16:34;;;;;;;12.38;7.95;;;;;;;;;;5007279;28;20102;-69
2023/03/21 11:19:11;;;;;;;11.73;8.35;;;;;;;;;;5007119;28;21679;-69
2023/03/21 11:21:37;;;;;;;14.52;9.20;;;;;;;;;;5009896;28;20037;-68
2023/03/21 11:24:04;;;;;;;11.35;8.05;;;;;;;;;;5012056;28;20105;-68
2023/03/21 11:26:36;;;;;;;14.55;8.93;;;;;;;;;;5011953;28;20387;-67
2023/03/21 11:29:20;;;;;;;15.50;9.48;;;;;;;;;;5009582;28;20376;-67
2023/03/21 11:31:45;;;;;;;13.38;8.68;;;;;;;;;;4997852;28;20033;-67
2023/03/21 11:34:25;;;;;;;14.77;8.60;;;;;;;;;;4996924;28;20092;-67
2023/03/21 11:36:56;;;;;;;14.88;8.13;;;;;;;;;;5014779;28;20068;-68
2023/03/21 11:39:30;;;;;;;15.10;9.63;;;;;;;;;;5014875;28;20125;-67
2023/03/21 11:41:56;;;;;;;16.65;9.77;;;;;;;;;;5014768;28;20140;-67
2023/03/21 11:44:29;;;;;;;12.73;8.13;;;;;;;;;;5014948;28;20030;-67
2023/03/21 11:46:55;;;;;;;13.43;8.10;;;;;;;;;;5014371;28;20120;-68
2023/03/21 11:49:22;;;;;;;19.05;9.50;;;;;;;;;;5014592;28;20582;-67
2023/03/21 11:52:00;;;;;;;15.38;8.95;;;;;;;;;;5014343;28;20092;-68
2023/03/21 11:54:34;;;;;;;13.55;8.95;;;;;;;;;;5014370;28;20439;-68
2023/03/21 11:57:13;;;;;;;14.40;9.10;;;;;;;;;;5014473;28;20073;-68
2023/03/21 11:59:55;;;;;;;15.18;9.77;;;;;;;;;;5013937;28;20057;-68
2023/03/21 12:02:46;;;;;;;12.85;8.27;;;;;;;;;;5014278;28;20042;-69
2023/03/21 12:05:31;;;;;;;20.38;9.88;;;;;;;;;;5013918;28;20022;-68
2023/03/21 12:08:28;;;;;;;19.23;12.75;;;;;;;;;;5014519;28;20376;-68
2023/03/21 12:11:10;;;;;;;14.52;9.25;;;;;;;;;;5014189;28;20404;-68
2023/03/21 12:13:36;;;;;;;16.52;9.80;;;;;;;;;;5014055;28;20099;-68
2023/03/21 12:16:21;;;;;;;13.77;9.45;;;;;;;;;;5013830;28;20523;-68
2023/03/21 12:18:55;;;;;;;14.75;9.73;;;;;;;;;;5013929;28;20021;-68
2023/03/21 12:21:44;;;;;;;15.07;9.27;;;;;;;;;;4996296;28;20061;-68
2023/03/21 12:24:32;;;;;;;21.77;11.32;;;;;;;;;;5013826;28;20029;-68
2023/03/21 12:27:33;;;;;;;16.90;9.85;;;;;;;;;;5013984;28;20034;-68
2023/03/21 12:30:17;;;;;;;15.27;10.07;;;;;;;;;;5013392;28;20069;-69
2023/03/21 12:33:22;;;;;;;15.07;9.98;;;;;;;;;;5012769;28;20026;-68
2023/03/21 12:36:09;;;;;;;18.10;10.82;;;;;;;;;;5018441;28;20029;-69
2023/03/21 12:38:59;;;;;;;14.70;10.45;;;;;;;;;;5033542;28;20037;-68
2023/03/21 12:41:32;;;;;;;13.25;9.52;;;;;;;;;;5033484;28;20482;-68
2023/03/21 12:44:04;;;;;;;15.55;10.27;;;;;;;;;;5033530;28;20030;-68
2023/03/21 12:46:44;;;;;;;15.65;9.88;;;;;;;;;;5033478;28;20104;-68
2023/03/21 12:49:37;;;;;;;18.35;11.02;;;;;;;;;;5033296;28;20018;-68
2023/03/21 12:52:11;;;;;;;12.98;9.63;;;;;;;;;;5032664;28;20041;-69
2023/03/21 12:54:41;;;;;;;17.40;10.35;;;;;;;;;;4993976;28;20031;-70
2023/03/21 12:57:16;;;;;;;15.20;9.27;;;;;;;;;;4993799;28;20109;-70
2023/03/21 12:59:42;;;;;;;23.80;10.52;;;;;;;;;;4993691;28;20034;-68
2023/03/21 13:02:21;;;;;;;14.45;10.35;;;;;;;;;;4993765;28;20486;-69
2023/03/21 13:04:56;;;;;;;19.20;10.13;;;;;;;;;;4993563;28;20034;-70
2023/03/21 13:07:24;;;;;;;16.80;10.63;;;;;;;;;;4976029;28;20026;-69
2023/03/21 13:09:50;;;;;;;14.65;9.98;;;;;;;;;;4993328;28;20030;-70
2023/03/21 13:12:24;;;;;;;20.80;12.43;;;;;;;;;;4993187;28;20029;-70
2023/03/21 13:15:14;;;;;;;23.98;14.27;;;;;;;;;;4993524;28;20019;-69
2023/03/21 13:17:52;;;;;;;19.35;11.90;;;;;;;;;;4993565;28;20029;-69
2023/03/21 13:20:45;;;;;;;20.45;12.57;;;;;;;;;;4976674;28;20027;-69
2023/03/21 13:23:12;;;;;;;16.58;10.05;;;;;;;;;;4993206;28;20341;-69
2023/03/21 13:25:44;;;;;;;20.60;13.63;;;;;;;;;;4992998;28;20023;-69
2023/03/21 13:28:19;;;;;;;22.73;13.40;;;;;;;;;;4992954;28;20026;-69
2023/03/21 13:30:45;;;;;;;22.35;13.57;;;;;;;;;;4991864;28;20030;-69
2023/03/21 13:33:20;;;;;;;20.88;13.68;;;;;;;;;;4993143;28;20464;-70
2023/03/21 13:36:13;;;;;;;28.33;16.73;;;;;;;;;;4993011;28;20476;-69
2023/03/21 13:38:39;;;;;;;25.83;13.63;;;;;;;;;;4982571;28;20065;-70
2023/03/21 13:41:29;;;;;;;17.98;11.43;;;;;;;;;;4992771;28;20030;-68
2023/03/21 13:44:01;;;;;;;15.38;9.50;;;;;;;;;;4993160;28;20026;-67
2023/03/21 13:46:30;;;;;;;16.02;10.57;;;;;;;;;;5015994;28;20086;-68
2023/03/21 13:49:00;;;;;;;15.73;10.65;;;;;;;;;;5032187;28;20025;-68
2023/03/21 13:51:28;;;;;;;27.58;11.77;;;;;;;;;;5032049;28;20461;-68
2023/03/21 13:54:28;;;;;;;18.70;12.00;;;;;;;;;;5031925;28;20029;-68
2023/03/21 13:56:59;;;;;;;17.30;10.77;;;;;;;;;;5014618;28;20108;-68
2023/03/21 13:59:37;;;;;;;25.42;11.55;;;;;;;;;;5032083;28;20075;-68
2023/03/21 14:02:23;;;;;;;16.83;10.40;;;;;;;;;;5031674;28;20087;-68
2023/03/21 14:04:56;;;;;;;17.58;10.60;;;;;;;;;;5032035;28;20043;-69
2023/03/21 14:07:25;;;;;;;14.93;10.45;;;;;;;;;;5032031;28;20025;-70
2023/03/21 14:09:54;;;;;;;19.67;11.73;;;;;;;;;;5031929;28;20033;-69
2023/03/21 14:12:27;;;;;;;20.67;12.10;;;;;;;;;;5031684;28;20087;-69
2023/03/21 14:15:02;;;;;;;19.20;12.55;;;;;;;;;;5032130;28;20053;-67
2023/03/21 14:17:33;;;;;;;17.45;12.00;;;;;;;;;;5031865;28;20056;-70
2023/03/21 14:20:19;;;;;;;20.85;12.85;;;;;;;;;;5031884;28;20022;-68
2023/03/21 14:22:48;;;;;;;17.15;11.02;;;;;;;;;;5034038;28;20033;-70
2023/03/21 14:25:16;;;;;;;19.63;12.00;;;;;;;;;;5035724;28;20100;-67
2023/03/21 14:27:46;;;;;;;17.02;11.13;;;;;;;;;;5035711;28;20021;-70
2023/03/21 14:30:24;;;;;;;21.00;13.95;;;;;;;;;;5036009;28;20022;-68
2023/03/21 14:32:52;;;;;;;22.60;15.25;;;;;;;;;;5035810;28;20067;-68
2023/03/21 14:35:20;;;;;;;20.23;14.95;;;;;;;;;;5035752;28;20119;-68
2023/03/21 14:37:46;;;;;;;21.45;13.40;;;;;;;;;;5035630;28;20021;-70
2023/03/21 14:40:21;;;;;;;20.63;12.43;;;;;;;;;;5035777;28;20075;-70
2023/03/21 14:42:49;;;;;;;21.58;13.77;;;;;;;;;;5035597;28;20562;-69